Hadley, Minnesota
Current Conditions -  °F | °C
As of 3:36 PM on Friday 28 Nov 2014 (Local Time) from KDVP Reporting Station
Clear Clear  
Wind Chill: 19°   Ceiling: Unl
Heat Index: 29°   Visibility: 7mi
Dew Point: 26°   Wind: 13mph
Humidity: 86%   Direction: 120°ESE
Pressure: 29.68"   Gusts: NA
Location:  44.0326°N, 95.9478°W
Report Text: KDVP 282136Z AUTO 12011KT 7SM CLR M01/M03 A2968 RMK AO2 T10141035
Loading
Personal Weather Stations






























Interactive Weather Map New forecast layout! Learn more

10-Day Weather Forecast

Advertisements
Track Severe Weather on mobile